sensor_id;sensor_type;location;lat;lon;timestamp;P1;durP1;ratioP1;P2;durP2;ratioP2
22525;SDS011;11429;50.842;4.386;2022-10-28T00:00:24;13.50;;;5.18;;
22525;SDS011;11429;50.842;4.386;2022-10-28T00:02:49;11.43;;;4.30;;
22525;SDS011;11429;50.842;4.386;2022-10-28T00:05:15;12.00;;;4.88;;
22525;SDS011;11429;50.842;4.386;2022-10-28T00:07:40;13.13;;;4.28;;
22525;SDS011;11429;50.842;4.386;2022-10-28T00:10:06;10.18;;;4.57;;
22525;SDS011;11429;50.842;4.386;2022-10-28T00:12:35;12.88;;;3.95;;
22525;SDS011;11429;50.842;4.386;2022-10-28T00:15:02;10.15;;;4.40;;
22525;SDS011;11429;50.842;4.386;2022-10-28T00:17:28;12.93;;;4.50;;
22525;SDS011;11429;50.842;4.386;2022-10-28T00:19:54;14.05;;;4.85;;
22525;SDS011;11429;50.842;4.386;2022-10-28T00:22:20;10.27;;;3.97;;
22525;SDS011;11429;50.842;4.386;2022-10-28T00:24:45;9.63;;;4.07;;
22525;SDS011;11429;50.842;4.386;2022-10-28T00:27:11;15.07;;;4.78;;
22525;SDS011;11429;50.842;4.386;2022-10-28T00:29:36;14.48;;;4.40;;
22525;SDS011;11429;50.842;4.386;2022-10-28T00:32:02;11.05;;;3.88;;
22525;SDS011;11429;50.842;4.386;2022-10-28T00:34:28;14.10;;;3.85;;
22525;SDS011;11429;50.842;4.386;2022-10-28T00:36:53;10.65;;;4.18;;
22525;SDS011;11429;50.842;4.386;2022-10-28T00:39:20;12.38;;;3.75;;
22525;SDS011;11429;50.842;4.386;2022-10-28T00:41:48;10.73;;;3.63;;
22525;SDS011;11429;50.842;4.386;2022-10-28T00:47:04;12.10;;;3.78;;
22525;SDS011;11429;50.842;4.386;2022-10-28T00:49:37;12.20;;;3.88;;
22525;SDS011;11429;50.842;4.386;2022-10-28T00:52:03;11.48;;;3.83;;
22525;SDS011;11429;50.842;4.386;2022-10-28T00:54:32;10.07;;;4.18;;
22525;SDS011;11429;50.842;4.386;2022-10-28T00:56:59;13.77;;;3.95;;
22525;SDS011;11429;50.842;4.386;2022-10-28T00:59:28;14.82;;;3.97;;
22525;SDS011;11429;50.842;4.386;2022-10-28T01:01:56;16.65;;;4.53;;
22525;SDS011;11429;50.842;4.386;2022-10-28T01:04:22;9.95;;;3.70;;
22525;SDS011;11429;50.842;4.386;2022-10-28T01:06:48;11.27;;;3.95;;
22525;SDS011;11429;50.842;4.386;2022-10-28T01:09:15;14.60;;;4.43;;
22525;SDS011;11429;50.842;4.386;2022-10-28T01:12:02;12.73;;;4.22;;
22525;SDS011;11429;50.842;4.386;2022-10-28T01:20:38;15.07;;;4.20;;
22525;SDS011;11429;50.842;4.386;2022-10-28T01:33:38;12.18;;;3.80;;
22525;SDS011;11429;50.842;4.386;2022-10-28T01:41:28;11.60;;;3.63;;
22525;SDS011;11429;50.842;4.386;2022-10-28T01:44:13;9.90;;;3.80;;
22525;SDS011;11429;50.842;4.386;2022-10-28T01:52:10;11.57;;;4.13;;
22525;SDS011;11429;50.842;4.386;2022-10-28T01:54:39;12.55;;;3.83;;
22525;SDS011;11429;50.842;4.386;2022-10-28T01:57:06;10.77;;;3.75;;
22525;SDS011;11429;50.842;4.386;2022-10-28T01:59:35;13.77;;;4.00;;
22525;SDS011;11429;50.842;4.386;2022-10-28T02:02:03;10.27;;;3.92;;
22525;SDS011;11429;50.842;4.386;2022-10-28T02:04:29;11.90;;;3.80;;
22525;SDS011;11429;50.842;4.386;2022-10-28T02:06:55;14.15;;;4.82;;
22525;SDS011;11429;50.842;4.386;2022-10-28T02:12:25;12.07;;;5.05;;
22525;SDS011;11429;50.842;4.386;2022-10-28T02:20:31;8.00;;;3.77;;
22525;SDS011;11429;50.842;4.386;2022-10-28T02:22:54;12.05;;;4.25;;
22525;SDS011;11429;50.842;4.386;2022-10-28T02:27:57;11.90;;;4.32;;
22525;SDS011;11429;50.842;4.386;2022-10-28T02:30:48;10.27;;;3.75;;
22525;SDS011;11429;50.842;4.386;2022-10-28T02:33:27;14.52;;;4.63;;
22525;SDS011;11429;50.842;4.386;2022-10-28T02:36:01;14.85;;;4.43;;
22525;SDS011;11429;50.842;4.386;2022-10-28T02:38:39;13.82;;;4.03;;
22525;SDS011;11429;50.842;4.386;2022-10-28T02:41:12;13.48;;;4.72;;
22525;SDS011;11429;50.842;4.386;2022-10-28T02:44:01;11.77;;;4.38;;
22525;SDS011;11429;50.842;4.386;2022-10-28T02:46:31;10.68;;;4.38;;
22525;SDS011;11429;50.842;4.386;2022-10-28T02:49:00;12.07;;;4.22;;
22525;SDS011;11429;50.842;4.386;2022-10-28T02:51:29;12.52;;;4.18;;
22525;SDS011;11429;50.842;4.386;2022-10-28T02:54:05;14.10;;;4.03;;
22525;SDS011;11429;50.842;4.386;2022-10-28T02:56:39;11.50;;;3.92;;
22525;SDS011;11429;50.842;4.386;2022-10-28T02:59:14;12.38;;;4.30;;
22525;SDS011;11429;50.842;4.386;2022-10-28T03:01:39;12.43;;;3.90;;
22525;SDS011;11429;50.842;4.386;2022-10-28T03:04:05;10.35;;;4.15;;
22525;SDS011;11429;50.842;4.386;2022-10-28T03:06:31;13.00;;;4.07;;
22525;SDS011;11429;50.842;4.386;2022-10-28T03:08:57;11.05;;;4.85;;
22525;SDS011;11429;50.842;4.386;2022-10-28T03:11:22;16.77;;;4.15;;
22525;SDS011;11429;50.842;4.386;2022-10-28T03:13:48;14.57;;;3.88;;
22525;SDS011;11429;50.842;4.386;2022-10-28T03:16:13;12.68;;;4.40;;
22525;SDS011;11429;50.842;4.386;2022-10-28T03:18:39;10.82;;;4.68;;
22525;SDS011;11429;50.842;4.386;2022-10-28T03:21:05;11.85;;;4.03;;
22525;SDS011;11429;50.842;4.386;2022-10-28T03:23:30;9.48;;;3.70;;
22525;SDS011;11429;50.842;4.386;2022-10-28T03:25:56;13.68;;;4.32;;
22525;SDS011;11429;50.842;4.386;2022-10-28T03:28:22;11.55;;;3.88;;
22525;SDS011;11429;50.842;4.386;2022-10-28T03:30:47;10.52;;;4.40;;
22525;SDS011;11429;50.842;4.386;2022-10-28T03:33:13;21.70;;;4.70;;
22525;SDS011;11429;50.842;4.386;2022-10-28T03:35:39;11.13;;;4.25;;
22525;SDS011;11429;50.842;4.386;2022-10-28T03:38:05;10.05;;;3.95;;
22525;SDS011;11429;50.842;4.386;2022-10-28T03:40:30;12.32;;;4.22;;
22525;SDS011;11429;50.842;4.386;2022-10-28T03:42:56;11.57;;;4.07;;
22525;SDS011;11429;50.842;4.386;2022-10-28T03:45:22;10.68;;;3.50;;
22525;SDS011;11429;50.842;4.386;2022-10-28T03:47:47;12.43;;;4.05;;
22525;SDS011;11429;50.842;4.386;2022-10-28T03:50:13;12.18;;;4.95;;
22525;SDS011;11429;50.842;4.386;2022-10-28T03:52:39;12.25;;;4.05;;
22525;SDS011;11429;50.842;4.386;2022-10-28T03:55:07;13.07;;;4.57;;
22525;SDS011;11429;50.842;4.386;2022-10-28T03:57:33;13.93;;;4.32;;
22525;SDS011;11429;50.842;4.386;2022-10-28T03:59:58;12.20;;;3.65;;
22525;SDS011;11429;50.842;4.386;2022-10-28T04:02:24;10.77;;;4.38;;
22525;SDS011;11429;50.842;4.386;2022-10-28T04:04:50;8.80;;;3.92;;
22525;SDS011;11429;50.842;4.386;2022-10-28T04:07:16;10.85;;;3.92;;
22525;SDS011;11429;50.842;4.386;2022-10-28T04:09:42;12.65;;;4.40;;
22525;SDS011;11429;50.842;4.386;2022-10-28T04:12:08;14.10;;;4.68;;
22525;SDS011;11429;50.842;4.386;2022-10-28T04:14:35;11.00;;;4.38;;
22525;SDS011;11429;50.842;4.386;2022-10-28T04:17:00;11.55;;;4.20;;
22525;SDS011;11429;50.842;4.386;2022-10-28T04:19:26;13.05;;;3.92;;
22525;SDS011;11429;50.842;4.386;2022-10-28T04:21:51;11.15;;;4.30;;
22525;SDS011;11429;50.842;4.386;2022-10-28T04:24:17;9.93;;;4.25;;
22525;SDS011;11429;50.842;4.386;2022-10-28T04:26:43;9.63;;;4.18;;
22525;SDS011;11429;50.842;4.386;2022-10-28T04:29:08;9.48;;;3.90;;
22525;SDS011;11429;50.842;4.386;2022-10-28T04:31:34;11.23;;;4.50;;
22525;SDS011;11429;50.842;4.386;2022-10-28T04:34:00;15.60;;;4.22;;
22525;SDS011;11429;50.842;4.386;2022-10-28T04:36:25;13.55;;;5.10;;
22525;SDS011;11429;50.842;4.386;2022-10-28T04:38:51;12.50;;;4.28;;
22525;SDS011;11429;50.842;4.386;2022-10-28T04:41:17;17.13;;;4.32;;
22525;SDS011;11429;50.842;4.386;2022-10-28T04:43:42;13.88;;;4.40;;
22525;SDS011;11429;50.842;4.386;2022-10-28T04:46:08;20.00;;;5.15;;
22525;SDS011;11429;50.842;4.386;2022-10-28T04:48:34;12.88;;;3.92;;
22525;SDS011;11429;50.842;4.386;2022-10-28T04:51:00;12.77;;;4.18;;
22525;SDS011;11429;50.842;4.386;2022-10-28T04:53:26;10.88;;;4.03;;
22525;SDS011;11429;50.842;4.386;2022-10-28T04:55:55;12.40;;;4.53;;
22525;SDS011;11429;50.842;4.386;2022-10-28T04:58:22;11.30;;;4.20;;
22525;SDS011;11429;50.842;4.386;2022-10-28T05:00:48;14.50;;;4.38;;
22525;SDS011;11429;50.842;4.386;2022-10-28T05:03:14;11.93;;;3.90;;
22525;SDS011;11429;50.842;4.386;2022-10-28T05:05:39;16.60;;;4.07;;
22525;SDS011;11429;50.842;4.386;2022-10-28T05:08:05;11.70;;;4.35;;
22525;SDS011;11429;50.842;4.386;2022-10-28T05:10:31;12.88;;;4.55;;
22525;SDS011;11429;50.842;4.386;2022-10-28T05:12:57;12.23;;;3.75;;
22525;SDS011;11429;50.842;4.386;2022-10-28T05:15:23;9.13;;;3.70;;
22525;SDS011;11429;50.842;4.386;2022-10-28T05:17:50;16.95;;;4.18;;
22525;SDS011;11429;50.842;4.386;2022-10-28T05:20:17;13.50;;;4.28;;
22525;SDS011;11429;50.842;4.386;2022-10-28T05:22:51;15.02;;;4.30;;
22525;SDS011;11429;50.842;4.386;2022-10-28T05:25:18;11.02;;;4.25;;
22525;SDS011;11429;50.842;4.386;2022-10-28T05:27:44;12.63;;;4.22;;
22525;SDS011;11429;50.842;4.386;2022-10-28T05:30:10;15.00;;;4.70;;
22525;SDS011;11429;50.842;4.386;2022-10-28T05:32:37;13.50;;;4.43;;
22525;SDS011;11429;50.842;4.386;2022-10-28T05:35:03;12.05;;;4.72;;
22525;SDS011;11429;50.842;4.386;2022-10-28T05:37:36;15.32;;;4.97;;
22525;SDS011;11429;50.842;4.386;2022-10-28T05:40:02;15.10;;;4.28;;
22525;SDS011;11429;50.842;4.386;2022-10-28T05:42:28;10.30;;;3.85;;
22525;SDS011;11429;50.842;4.386;2022-10-28T05:44:53;13.85;;;4.50;;
22525;SDS011;11429;50.842;4.386;2022-10-28T05:47:19;13.88;;;4.20;;
22525;SDS011;11429;50.842;4.386;2022-10-28T05:49:45;13.77;;;4.43;;
22525;SDS011;11429;50.842;4.386;2022-10-28T05:52:10;15.75;;;5.38;;
22525;SDS011;11429;50.842;4.386;2022-10-28T05:54:36;11.98;;;4.55;;
22525;SDS011;11429;50.842;4.386;2022-10-28T05:57:02;13.60;;;4.28;;
22525;SDS011;11429;50.842;4.386;2022-10-28T05:59:27;10.30;;;4.10;;
22525;SDS011;11429;50.842;4.386;2022-10-28T06:01:53;15.65;;;4.78;;
22525;SDS011;11429;50.842;4.386;2022-10-28T06:04:18;13.65;;;4.82;;
22525;SDS011;11429;50.842;4.386;2022-10-28T06:06:44;21.77;;;5.13;;
22525;SDS011;11429;50.842;4.386;2022-10-28T06:09:10;12.77;;;4.63;;
22525;SDS011;11429;50.842;4.386;2022-10-28T06:11:35;10.88;;;4.38;;
22525;SDS011;11429;50.842;4.386;2022-10-28T06:14:01;15.43;;;4.55;;
22525;SDS011;11429;50.842;4.386;2022-10-28T06:16:27;13.27;;;4.65;;
22525;SDS011;11429;50.842;4.386;2022-10-28T06:18:53;16.95;;;5.03;;
22525;SDS011;11429;50.842;4.386;2022-10-28T06:21:18;13.90;;;4.85;;
22525;SDS011;11429;50.842;4.386;2022-10-28T06:23:45;17.55;;;6.25;;
22525;SDS011;11429;50.842;4.386;2022-10-28T06:26:12;20.30;;;5.28;;
22525;SDS011;11429;50.842;4.386;2022-10-28T06:28:37;12.35;;;5.32;;
22525;SDS011;11429;50.842;4.386;2022-10-28T06:31:03;21.23;;;5.18;;
22525;SDS011;11429;50.842;4.386;2022-10-28T06:33:31;13.10;;;4.90;;
22525;SDS011;11429;50.842;4.386;2022-10-28T06:35:57;12.68;;;4.20;;
22525;SDS011;11429;50.842;4.386;2022-10-28T06:38:25;15.65;;;4.80;;
22525;SDS011;11429;50.842;4.386;2022-10-28T06:40:52;12.80;;;4.72;;
22525;SDS011;11429;50.842;4.386;2022-10-28T06:43:18;15.75;;;4.80;;
22525;SDS011;11429;50.842;4.386;2022-10-28T06:45:44;17.73;;;5.10;;
22525;SDS011;11429;50.842;4.386;2022-10-28T06:48:11;14.55;;;4.70;;
22525;SDS011;11429;50.842;4.386;2022-10-28T06:50:37;15.02;;;5.32;;
22525;SDS011;11429;50.842;4.386;2022-10-28T06:53:03;16.48;;;4.85;;
22525;SDS011;11429;50.842;4.386;2022-10-28T06:55:28;13.18;;;4.85;;
22525;SDS011;11429;50.842;4.386;2022-10-28T06:57:58;15.98;;;5.07;;
22525;SDS011;11429;50.842;4.386;2022-10-28T07:00:26;16.23;;;4.95;;
22525;SDS011;11429;50.842;4.386;2022-10-28T07:02:52;17.85;;;4.90;;
22525;SDS011;11429;50.842;4.386;2022-10-28T07:05:19;18.27;;;4.72;;
22525;SDS011;11429;50.842;4.386;2022-10-28T07:07:46;15.88;;;5.30;;
22525;SDS011;11429;50.842;4.386;2022-10-28T07:10:12;20.30;;;5.43;;
22525;SDS011;11429;50.842;4.386;2022-10-28T07:12:37;18.17;;;5.35;;
22525;SDS011;11429;50.842;4.386;2022-10-28T07:15:03;15.40;;;5.18;;
22525;SDS011;11429;50.842;4.386;2022-10-28T07:17:29;15.50;;;5.18;;
22525;SDS011;11429;50.842;4.386;2022-10-28T07:19:55;14.60;;;5.15;;
22525;SDS011;11429;50.842;4.386;2022-10-28T07:22:21;17.95;;;5.93;;
22525;SDS011;11429;50.842;4.386;2022-10-28T07:24:46;20.40;;;5.47;;
22525;SDS011;11429;50.842;4.386;2022-10-28T07:27:12;21.08;;;5.78;;
22525;SDS011;11429;50.842;4.386;2022-10-28T07:29:38;18.23;;;5.38;;
22525;SDS011;11429;50.842;4.386;2022-10-28T07:32:04;12.15;;;5.35;;
22525;SDS011;11429;50.842;4.386;2022-10-28T07:34:30;12.52;;;4.82;;
22525;SDS011;11429;50.842;4.386;2022-10-28T07:36:56;13.00;;;5.00;;
22525;SDS011;11429;50.842;4.386;2022-10-28T07:39:21;12.10;;;4.93;;
22525;SDS011;11429;50.842;4.386;2022-10-28T07:41:47;14.82;;;5.93;;
22525;SDS011;11429;50.842;4.386;2022-10-28T07:44:13;14.43;;;4.45;;
22525;SDS011;11429;50.842;4.386;2022-10-28T07:46:39;17.23;;;5.32;;
22525;SDS011;11429;50.842;4.386;2022-10-28T07:49:05;16.77;;;5.80;;
22525;SDS011;11429;50.842;4.386;2022-10-28T07:51:30;17.77;;;5.60;;
22525;SDS011;11429;50.842;4.386;2022-10-28T07:53:56;19.67;;;5.03;;
22525;SDS011;11429;50.842;4.386;2022-10-28T07:56:22;15.68;;;5.32;;
22525;SDS011;11429;50.842;4.386;2022-10-28T07:58:48;18.02;;;5.50;;
22525;SDS011;11429;50.842;4.386;2022-10-28T08:01:14;20.02;;;6.30;;
22525;SDS011;11429;50.842;4.386;2022-10-28T08:03:41;13.10;;;5.13;;
22525;SDS011;11429;50.842;4.386;2022-10-28T08:06:11;14.48;;;5.03;;
22525;SDS011;11429;50.842;4.386;2022-10-28T08:08:43;18.80;;;5.47;;
22525;SDS011;11429;50.842;4.386;2022-10-28T08:11:11;16.02;;;5.50;;
22525;SDS011;11429;50.842;4.386;2022-10-28T08:13:39;19.85;;;4.90;;
22525;SDS011;11429;50.842;4.386;2022-10-28T08:16:05;14.13;;;4.65;;
22525;SDS011;11429;50.842;4.386;2022-10-28T08:18:32;13.32;;;4.80;;
22525;SDS011;11429;50.842;4.386;2022-10-28T08:21:01;13.02;;;4.88;;
22525;SDS011;11429;50.842;4.386;2022-10-28T08:23:29;14.43;;;4.70;;
22525;SDS011;11429;50.842;4.386;2022-10-28T08:25:55;18.70;;;4.80;;
22525;SDS011;11429;50.842;4.386;2022-10-28T08:28:21;12.30;;;4.90;;
22525;SDS011;11429;50.842;4.386;2022-10-28T08:30:48;15.40;;;6.10;;
22525;SDS011;11429;50.842;4.386;2022-10-28T08:33:14;14.88;;;5.47;;
22525;SDS011;11429;50.842;4.386;2022-10-28T08:35:40;16.65;;;4.88;;
22525;SDS011;11429;50.842;4.386;2022-10-28T08:38:06;31.42;;;8.13;;
22525;SDS011;11429;50.842;4.386;2022-10-28T08:43:04;18.95;;;5.10;;
22525;SDS011;11429;50.842;4.386;2022-10-28T08:48:32;15.82;;;5.28;;
22525;SDS011;11429;50.842;4.386;2022-10-28T08:51:05;17.08;;;4.95;;
22525;SDS011;11429;50.842;4.386;2022-10-28T08:56:14;15.70;;;5.18;;
22525;SDS011;11429;50.842;4.386;2022-10-28T08:59:03;16.10;;;5.45;;
22525;SDS011;11429;50.842;4.386;2022-10-28T09:04:04;19.08;;;4.82;;
22525;SDS011;11429;50.842;4.386;2022-10-28T09:06:36;16.45;;;5.72;;
22525;SDS011;11429;50.842;4.386;2022-10-28T09:09:02;13.13;;;4.72;;
22525;SDS011;11429;50.842;4.386;2022-10-28T09:11:35;18.65;;;5.38;;
22525;SDS011;11429;50.842;4.386;2022-10-28T09:22:21;10.32;;;4.53;;
22525;SDS011;11429;50.842;4.386;2022-10-28T09:27:42;12.95;;;4.90;;
22525;SDS011;11429;50.842;4.386;2022-10-28T09:36:03;13.38;;;4.57;;
22525;SDS011;11429;50.842;4.386;2022-10-28T09:38:34;14.40;;;4.35;;
22525;SDS011;11429;50.842;4.386;2022-10-28T09:41:05;16.77;;;4.53;;
22525;SDS011;11429;50.842;4.386;2022-10-28T09:43:52;12.98;;;4.90;;
22525;SDS011;11429;50.842;4.386;2022-10-28T09:46:22;12.43;;;4.68;;
22525;SDS011;11429;50.842;4.386;2022-10-28T09:48:52;12.20;;;4.63;;
22525;SDS011;11429;50.842;4.386;2022-10-28T09:51:33;12.23;;;3.92;;
22525;SDS011;11429;50.842;4.386;2022-10-28T09:54:00;13.75;;;4.57;;
22525;SDS011;11429;50.842;4.386;2022-10-28T09:56:27;12.10;;;4.55;;
22525;SDS011;11429;50.842;4.386;2022-10-28T09:58:54;15.57;;;4.70;;
22525;SDS011;11429;50.842;4.386;2022-10-28T10:01:22;14.80;;;4.22;;
22525;SDS011;11429;50.842;4.386;2022-10-28T10:03:49;14.57;;;4.03;;
22525;SDS011;11429;50.842;4.386;2022-10-28T10:06:17;17.33;;;4.28;;
22525;SDS011;11429;50.842;4.386;2022-10-28T10:08:43;11.80;;;4.32;;
22525;SDS011;11429;50.842;4.386;2022-10-28T10:11:16;15.63;;;4.90;;
22525;SDS011;11429;50.842;4.386;2022-10-28T10:13:57;12.20;;;3.90;;
22525;SDS011;11429;50.842;4.386;2022-10-28T10:16:32;13.15;;;4.10;;
22525;SDS011;11429;50.842;4.386;2022-10-28T10:19:05;13.63;;;4.50;;
22525;SDS011;11429;50.842;4.386;2022-10-28T10:21:41;12.63;;;4.03;;
22525;SDS011;11429;50.842;4.386;2022-10-28T10:26:45;12.63;;;4.28;;
22525;SDS011;11429;50.842;4.386;2022-10-28T10:29:10;13.07;;;4.68;;
22525;SDS011;11429;50.842;4.386;2022-10-28T10:31:37;14.98;;;4.57;;
22525;SDS011;11429;50.842;4.386;2022-10-28T10:34:03;12.45;;;4.18;;
22525;SDS011;11429;50.842;4.386;2022-10-28T10:36:29;14.70;;;4.30;;
22525;SDS011;11429;50.842;4.386;2022-10-28T10:38:56;15.68;;;4.95;;
22525;SDS011;11429;50.842;4.386;2022-10-28T10:41:37;20.27;;;5.05;;
22525;SDS011;11429;50.842;4.386;2022-10-28T10:46:45;13.45;;;4.53;;
22525;SDS011;11429;50.842;4.386;2022-10-28T10:49:31;19.67;;;5.05;;
22525;SDS011;11429;50.842;4.386;2022-10-28T10:51:59;14.77;;;4.28;;
22525;SDS011;11429;50.842;4.386;2022-10-28T10:54:39;15.45;;;4.95;;
22525;SDS011;11429;50.842;4.386;2022-10-28T10:57:20;17.33;;;4.85;;
22525;SDS011;11429;50.842;4.386;2022-10-28T10:59:47;18.38;;;5.05;;
22525;SDS011;11429;50.842;4.386;2022-10-28T11:02:19;15.90;;;4.85;;
22525;SDS011;11429;50.842;4.386;2022-10-28T11:04:52;13.25;;;4.72;;
22525;SDS011;11429;50.842;4.386;2022-10-28T11:07:21;17.83;;;4.78;;
22525;SDS011;11429;50.842;4.386;2022-10-28T11:09:47;22.35;;;4.68;;
22525;SDS011;11429;50.842;4.386;2022-10-28T11:12:15;29.35;;;5.25;;
22525;SDS011;11429;50.842;4.386;2022-10-28T11:14:53;17.85;;;5.03;;
22525;SDS011;11429;50.842;4.386;2022-10-28T11:17:23;17.23;;;5.32;;
22525;SDS011;11429;50.842;4.386;2022-10-28T11:19:54;17.38;;;4.10;;
22525;SDS011;11429;50.842;4.386;2022-10-28T11:33:20;16.65;;;4.22;;
22525;SDS011;11429;50.842;4.386;2022-10-28T11:44:05;16.50;;;4.43;;
22525;SDS011;11429;50.842;4.386;2022-10-28T11:47:01;16.42;;;5.03;;
22525;SDS011;11429;50.842;4.386;2022-10-28T11:52:39;15.98;;;4.20;;
22525;SDS011;11429;50.842;4.386;2022-10-28T12:12:14;11.55;;;4.32;;
22525;SDS011;11429;50.842;4.386;2022-10-28T12:14:51;14.55;;;4.28;;
22525;SDS011;11429;50.842;4.386;2022-10-28T12:17:43;18.00;;;4.47;;
22525;SDS011;11429;50.842;4.386;2022-10-28T12:20:41;17.70;;;5.32;;
22525;SDS011;11429;50.842;4.386;2022-10-28T12:23:12;15.25;;;4.20;;
22525;SDS011;11429;50.842;4.386;2022-10-28T12:25:41;21.65;;;9.35;;
22525;SDS011;11429;50.842;4.386;2022-10-28T12:28:15;13.48;;;4.55;;
22525;SDS011;11429;50.842;4.386;2022-10-28T12:30:46;15.50;;;4.05;;
22525;SDS011;11429;50.842;4.386;2022-10-28T12:33:25;14.50;;;4.18;;
22525;SDS011;11429;50.842;4.386;2022-10-28T12:36:12;19.52;;;4.47;;
22525;SDS011;11429;50.842;4.386;2022-10-28T12:38:59;17.17;;;4.68;;
22525;SDS011;11429;50.842;4.386;2022-10-28T12:41:28;14.38;;;4.43;;
22525;SDS011;11429;50.842;4.386;2022-10-28T12:49:38;18.85;;;4.40;;
22525;SDS011;11429;50.842;4.386;2022-10-28T12:52:34;15.00;;;4.43;;
22525;SDS011;11429;50.842;4.386;2022-10-28T12:55:32;22.90;;;4.90;;
22525;SDS011;11429;50.842;4.386;2022-10-28T12:58:11;19.90;;;4.20;;
22525;SDS011;11429;50.842;4.386;2022-10-28T13:00:44;11.15;;;3.80;;
22525;SDS011;11429;50.842;4.386;2022-10-28T13:03:14;14.70;;;4.65;;
22525;SDS011;11429;50.842;4.386;2022-10-28T13:28:48;17.77;;;4.63;;
22525;SDS011;11429;50.842;4.386;2022-10-28T13:31:15;10.82;;;3.72;;
22525;SDS011;11429;50.842;4.386;2022-10-28T13:34:00;21.52;;;4.47;;
22525;SDS011;11429;50.842;4.386;2022-10-28T13:39:06;14.43;;;4.35;;
22525;SDS011;11429;50.842;4.386;2022-10-28T13:57:49;15.52;;;3.92;;
22525;SDS011;11429;50.842;4.386;2022-10-28T14:08:05;16.25;;;4.20;;
22525;SDS011;11429;50.842;4.386;2022-10-28T14:10:56;20.20;;;4.90;;
22525;SDS011;11429;50.842;4.386;2022-10-28T14:13:28;16.55;;;4.35;;
22525;SDS011;11429;50.842;4.386;2022-10-28T14:18:50;14.02;;;4.30;;
22525;SDS011;11429;50.842;4.386;2022-10-28T14:24:35;19.80;;;4.70;;
22525;SDS011;11429;50.842;4.386;2022-10-28T14:40:53;18.40;;;4.68;;
22525;SDS011;11429;50.842;4.386;2022-10-28T14:43:36;13.32;;;4.13;;
22525;SDS011;11429;50.842;4.386;2022-10-28T14:46:54;21.92;;;4.75;;
22525;SDS011;11429;50.842;4.386;2022-10-28T14:49:16;19.95;;;4.35;;
22525;SDS011;11429;50.842;4.386;2022-10-28T14:51:47;19.63;;;4.43;;
22525;SDS011;11429;50.842;4.386;2022-10-28T14:54:15;14.07;;;4.40;;
22525;SDS011;11429;50.842;4.386;2022-10-28T14:56:48;13.73;;;4.28;;
22525;SDS011;11429;50.842;4.386;2022-10-28T15:04:47;15.95;;;5.00;;
22525;SDS011;11429;50.842;4.386;2022-10-28T15:07:27;16.70;;;4.60;;
22525;SDS011;11429;50.842;4.386;2022-10-28T15:09:53;13.57;;;4.80;;
22525;SDS011;11429;50.842;4.386;2022-10-28T15:12:20;20.52;;;4.13;;
22525;SDS011;11429;50.842;4.386;2022-10-28T15:14:50;14.27;;;4.20;;
22525;SDS011;11429;50.842;4.386;2022-10-28T15:17:19;15.73;;;4.97;;
22525;SDS011;11429;50.842;4.386;2022-10-28T15:19:49;17.13;;;4.65;;
22525;SDS011;11429;50.842;4.386;2022-10-28T15:27:22;17.23;;;4.97;;
22525;SDS011;11429;50.842;4.386;2022-10-28T15:29:49;18.20;;;4.95;;
22525;SDS011;11429;50.842;4.386;2022-10-28T15:34:45;19.98;;;5.57;;
22525;SDS011;11429;50.842;4.386;2022-10-28T15:37:14;17.50;;;5.50;;
22525;SDS011;11429;50.842;4.386;2022-10-28T15:39:45;17.73;;;6.20;;
22525;SDS011;11429;50.842;4.386;2022-10-28T15:45:19;19.88;;;6.30;;
22525;SDS011;11429;50.842;4.386;2022-10-28T15:47:48;24.17;;;5.45;;
22525;SDS011;11429;50.842;4.386;2022-10-28T15:52:41;17.98;;;5.20;;
22525;SDS011;11429;50.842;4.386;2022-10-28T16:02:49;16.40;;;4.95;;
22525;SDS011;11429;50.842;4.386;2022-10-28T16:07:57;14.63;;;4.47;;
22525;SDS011;11429;50.842;4.386;2022-10-28T16:10:28;18.63;;;4.70;;
22525;SDS011;11429;50.842;4.386;2022-10-28T16:12:58;13.73;;;4.88;;
22525;SDS011;11429;50.842;4.386;2022-10-28T16:15:24;13.98;;;5.63;;
22525;SDS011;11429;50.842;4.386;2022-10-28T16:17:50;14.98;;;5.43;;
22525;SDS011;11429;50.842;4.386;2022-10-28T16:20:18;13.40;;;5.05;;
22525;SDS011;11429;50.842;4.386;2022-10-28T16:22:47;17.30;;;5.63;;
22525;SDS011;11429;50.842;4.386;2022-10-28T16:25:14;12.88;;;5.15;;
22525;SDS011;11429;50.842;4.386;2022-10-28T16:27:41;13.48;;;4.70;;
22525;SDS011;11429;50.842;4.386;2022-10-28T16:30:08;14.80;;;5.55;;
22525;SDS011;11429;50.842;4.386;2022-10-28T16:32:38;13.90;;;4.72;;
22525;SDS011;11429;50.842;4.386;2022-10-28T16:35:12;13.27;;;5.32;;
22525;SDS011;11429;50.842;4.386;2022-10-28T16:37:39;17.45;;;5.53;;
22525;SDS011;11429;50.842;4.386;2022-10-28T16:40:07;17.65;;;5.43;;
22525;SDS011;11429;50.842;4.386;2022-10-28T16:42:33;18.48;;;5.47;;
22525;SDS011;11429;50.842;4.386;2022-10-28T16:45:01;15.93;;;5.22;;
22525;SDS011;11429;50.842;4.386;2022-10-28T16:47:27;20.48;;;5.93;;
22525;SDS011;11429;50.842;4.386;2022-10-28T16:49:53;16.10;;;5.65;;
22525;SDS011;11429;50.842;4.386;2022-10-28T16:52:21;27.20;;;7.25;;
22525;SDS011;11429;50.842;4.386;2022-10-28T16:54:49;18.08;;;6.32;;
22525;SDS011;11429;50.842;4.386;2022-10-28T16:57:15;19.67;;;7.18;;
22525;SDS011;11429;50.842;4.386;2022-10-28T16:59:43;20.80;;;6.40;;
22525;SDS011;11429;50.842;4.386;2022-10-28T17:02:18;27.40;;;7.25;;
22525;SDS011;11429;50.842;4.386;2022-10-28T17:04:54;15.43;;;7.38;;
22525;SDS011;11429;50.842;4.386;2022-10-28T17:07:20;21.42;;;7.38;;
22525;SDS011;11429;50.842;4.386;2022-10-28T17:09:46;19.23;;;7.00;;
22525;SDS011;11429;50.842;4.386;2022-10-28T17:12:13;23.55;;;7.15;;
22525;SDS011;11429;50.842;4.386;2022-10-28T17:14:41;19.98;;;7.65;;
22525;SDS011;11429;50.842;4.386;2022-10-28T17:17:07;15.05;;;7.05;;
22525;SDS011;11429;50.842;4.386;2022-10-28T17:19:34;15.50;;;6.18;;
22525;SDS011;11429;50.842;4.386;2022-10-28T17:22:00;22.63;;;7.10;;
22525;SDS011;11429;50.842;4.386;2022-10-28T17:24:26;22.05;;;6.35;;
22525;SDS011;11429;50.842;4.386;2022-10-28T17:26:52;20.92;;;6.70;;
22525;SDS011;11429;50.842;4.386;2022-10-28T17:29:18;16.70;;;5.82;;
22525;SDS011;11429;50.842;4.386;2022-10-28T17:31:43;22.10;;;6.60;;
22525;SDS011;11429;50.842;4.386;2022-10-28T17:34:09;28.50;;;7.35;;
22525;SDS011;11429;50.842;4.386;2022-10-28T17:36:35;19.63;;;7.03;;
22525;SDS011;11429;50.842;4.386;2022-10-28T17:39:04;17.52;;;7.28;;
22525;SDS011;11429;50.842;4.386;2022-10-28T17:41:30;19.45;;;6.80;;
22525;SDS011;11429;50.842;4.386;2022-10-28T17:43:56;24.67;;;7.85;;
22525;SDS011;11429;50.842;4.386;2022-10-28T17:46:21;19.95;;;7.32;;
22525;SDS011;11429;50.842;4.386;2022-10-28T17:48:47;18.67;;;6.60;;
22525;SDS011;11429;50.842;4.386;2022-10-28T17:51:16;22.52;;;8.07;;
22525;SDS011;11429;50.842;4.386;2022-10-28T17:53:44;21.73;;;7.32;;
22525;SDS011;11429;50.842;4.386;2022-10-28T17:56:10;18.20;;;7.22;;
22525;SDS011;11429;50.842;4.386;2022-10-28T17:58:36;20.58;;;7.13;;
22525;SDS011;11429;50.842;4.386;2022-10-28T18:01:03;17.80;;;7.25;;
22525;SDS011;11429;50.842;4.386;2022-10-28T18:03:30;18.63;;;6.85;;
22525;SDS011;11429;50.842;4.386;2022-10-28T18:06:02;22.58;;;6.70;;
22525;SDS011;11429;50.842;4.386;2022-10-28T18:08:32;18.25;;;6.68;;
22525;SDS011;11429;50.842;4.386;2022-10-28T18:10:59;24.45;;;7.25;;
22525;SDS011;11429;50.842;4.386;2022-10-28T18:13:25;21.00;;;6.82;;
22525;SDS011;11429;50.842;4.386;2022-10-28T18:15:52;17.83;;;6.35;;
22525;SDS011;11429;50.842;4.386;2022-10-28T18:18:18;23.10;;;6.82;;
22525;SDS011;11429;50.842;4.386;2022-10-28T18:20:50;21.00;;;7.22;;
22525;SDS011;11429;50.842;4.386;2022-10-28T18:23:17;20.30;;;7.72;;